createdAt,value
2018-08-30T00:00:54.818Z,19.33
2018-08-30T00:03:23.311Z,16.67
2018-08-30T00:05:51.750Z,19.60
2018-08-30T00:08:20.234Z,21.43
2018-08-30T00:10:48.711Z,23.63
2018-08-30T00:13:17.173Z,26.90
2018-08-30T00:15:45.663Z,24.07
2018-08-30T00:18:14.130Z,24.63
2018-08-30T00:20:42.602Z,23.40
2018-08-30T00:23:11.054Z,23.07
2018-08-30T00:25:39.652Z,20.63
2018-08-30T00:28:08.134Z,21.57
2018-08-30T00:30:36.585Z,18.50
2018-08-30T00:33:05.140Z,19.60
2018-08-30T00:35:33.606Z,18.67
2018-08-30T00:38:02.137Z,18.13
2018-08-30T00:40:30.597Z,17.33
2018-08-30T00:42:59.110Z,20.80
2018-08-30T00:45:27.638Z,24.53
2018-08-30T00:47:56.090Z,21.90
2018-08-30T00:50:24.573Z,25.40
2018-08-30T00:52:53.058Z,20.90
2018-08-30T00:55:21.511Z,25.37
2018-08-30T00:57:50.005Z,22.53
2018-08-30T01:00:18.453Z,27.67
2018-08-30T01:02:46.909Z,25.83
2018-08-30T01:05:15.377Z,25.33
2018-08-30T01:07:43.838Z,27.30
2018-08-30T01:10:12.309Z,30.83
2018-08-30T01:12:46.473Z,30.77
2018-08-30T01:15:15.014Z,30.13
2018-08-30T01:17:43.487Z,27.77
2018-08-30T01:20:11.960Z,30.20
2018-08-30T01:22:40.442Z,30.00
2018-08-30T01:25:09.122Z,31.57
2018-08-30T01:27:37.652Z,35.43
2018-08-30T01:30:06.510Z,34.23
2018-08-30T01:32:35.115Z,38.60
2018-08-30T01:35:03.647Z,39.50
2018-08-30T01:37:32.155Z,39.60
2018-08-30T01:40:00.612Z,37.17
2018-08-30T01:42:29.077Z,39.67
2018-08-30T01:44:57.550Z,39.47
2018-08-30T01:47:25.986Z,41.77
2018-08-30T01:49:54.430Z,46.50
2018-08-30T01:52:22.901Z,41.23
2018-08-30T01:54:51.402Z,43.87
2018-08-30T01:57:19.880Z,43.60
2018-08-30T01:59:48.342Z,43.63
2018-08-30T02:02:16.783Z,39.87
2018-08-30T02:04:45.279Z,42.23
2018-08-30T02:07:13.752Z,41.93
2018-08-30T02:09:42.231Z,44.57
2018-08-30T02:12:10.686Z,38.27
2018-08-30T02:14:39.179Z,47.40
2018-08-30T02:17:07.627Z,37.93
2018-08-30T02:19:36.062Z,40.40
2018-08-30T02:22:04.566Z,40.70
2018-08-30T02:24:32.997Z,40.13
2018-08-30T02:27:01.451Z,34.97
2018-08-30T02:29:29.927Z,41.83
2018-08-30T02:31:58.394Z,34.87
2018-08-30T02:34:26.833Z,38.63
2018-08-30T02:36:55.303Z,35.80
2018-08-30T02:39:23.765Z,42.93
2018-08-30T02:41:52.296Z,43.33
2018-08-30T02:44:20.777Z,37.60
2018-08-30T02:46:49.234Z,43.33
2018-08-30T02:49:17.700Z,41.80
2018-08-30T02:51:46.201Z,37.43
2018-08-30T02:54:14.682Z,43.27
2018-08-30T02:56:43.143Z,43.63
2018-08-30T02:59:11.627Z,42.83
2018-08-30T03:01:40.092Z,39.00
2018-08-30T03:04:08.602Z,35.33
2018-08-30T03:06:37.038Z,40.03
2018-08-30T03:09:07.507Z,42.37
2018-08-30T03:11:35.990Z,37.00
2018-08-30T03:14:04.484Z,42.73
2018-08-30T03:16:33.083Z,44.70
2018-08-30T03:19:01.988Z,38.13
2018-08-30T03:21:30.450Z,42.87
2018-08-30T03:23:58.889Z,45.10
2018-08-30T03:26:27.362Z,41.20
2018-08-30T03:28:55.798Z,44.83
2018-08-30T03:31:24.267Z,44.00
2018-08-30T03:33:52.729Z,44.40
2018-08-30T03:36:21.171Z,48.50
2018-08-30T03:38:49.658Z,46.77
2018-08-30T03:41:18.102Z,49.17
2018-08-30T03:43:46.573Z,37.27
2018-08-30T03:46:15.029Z,43.47
2018-08-30T03:48:43.477Z,40.40
2018-08-30T03:51:11.930Z,43.17
2018-08-30T03:53:40.407Z,42.97
2018-08-30T03:56:08.843Z,47.27
2018-08-30T03:58:37.334Z,40.90
2018-08-30T04:01:06.011Z,41.57
2018-08-30T04:03:34.451Z,46.43
2018-08-30T04:06:02.909Z,40.80
2018-08-30T04:08:31.380Z,41.83
2018-08-30T04:10:59.851Z,39.13
2018-08-30T04:13:28.316Z,44.27
2018-08-30T04:15:56.782Z,42.23
2018-08-30T04:18:25.235Z,37.37
2018-08-30T04:20:53.671Z,41.60
2018-08-30T04:23:22.122Z,43.70
2018-08-30T04:25:50.561Z,41.20
2018-08-30T04:28:19.013Z,40.87
2018-08-30T04:30:47.510Z,38.73
2018-08-30T04:33:15.946Z,46.37
2018-08-30T04:35:44.376Z,42.90
2018-08-30T04:38:12.856Z,48.17
2018-08-30T04:40:41.295Z,45.03
2018-08-30T04:43:09.729Z,49.77
2018-08-30T04:45:38.171Z,47.30
2018-08-30T04:48:06.631Z,47.37
2018-08-30T04:50:35.106Z,44.50
2018-08-30T04:53:03.549Z,47.90
2018-08-30T04:55:32.027Z,42.03
2018-08-30T04:58:01.109Z,46.27
2018-08-30T05:00:29.581Z,43.30
2018-08-30T05:02:58.087Z,48.13
2018-08-30T05:05:26.562Z,51.17
2018-08-30T05:07:55.025Z,46.70
2018-08-30T05:10:23.526Z,43.90
2018-08-30T05:12:52.010Z,48.20
2018-08-30T05:15:20.478Z,49.13
2018-08-30T05:17:48.981Z,45.63
2018-08-30T05:20:17.416Z,41.57
2018-08-30T05:22:45.868Z,47.93
2018-08-30T05:25:14.329Z,42.00
2018-08-30T05:27:42.781Z,45.43
2018-08-30T05:30:11.291Z,49.30
2018-08-30T05:32:39.730Z,43.47
2018-08-30T05:35:08.195Z,45.80
2018-08-30T05:37:36.633Z,44.23
2018-08-30T05:40:05.163Z,45.70
2018-08-30T05:42:33.605Z,36.40
2018-08-30T05:45:02.075Z,43.63
2018-08-30T05:47:30.519Z,40.97
2018-08-30T05:49:58.990Z,42.43
2018-08-30T05:52:27.451Z,40.47
2018-08-30T05:54:55.900Z,36.70
2018-08-30T05:57:24.367Z,41.40
2018-08-30T05:59:52.823Z,31.57
2018-08-30T06:02:21.624Z,37.07
2018-08-30T06:04:50.050Z,40.70
2018-08-30T06:07:18.590Z,35.00
2018-08-30T06:09:47.051Z,40.67
2018-08-30T06:12:15.532Z,38.93
2018-08-30T06:14:43.983Z,38.57
2018-08-30T06:17:12.453Z,37.07
2018-08-30T06:19:40.915Z,36.00
2018-08-30T06:22:09.349Z,36.77
2018-08-30T06:24:37.876Z,39.97
2018-08-30T06:27:06.365Z,36.63
2018-08-30T06:29:34.834Z,34.67
2018-08-30T06:32:03.346Z,31.30
2018-08-30T06:34:31.948Z,35.27
2018-08-30T06:37:00.467Z,31.67
2018-08-30T06:39:28.932Z,36.90
2018-08-30T06:41:57.389Z,35.40
2018-08-30T06:44:25.846Z,35.00
2018-08-30T06:46:54.302Z,30.80
2018-08-30T06:49:22.744Z,28.63
2018-08-30T06:51:51.207Z,28.60
2018-08-30T06:54:19.639Z,30.80
2018-08-30T06:56:48.074Z,28.67
2018-08-30T06:59:16.500Z,29.67
2018-08-30T07:01:44.995Z,28.97
2018-08-30T07:04:13.459Z,30.37
2018-08-30T07:06:42.028Z,29.43
2018-08-30T07:09:11.969Z,30.23
2018-08-30T07:11:40.772Z,25.70
2018-08-30T07:14:09.283Z,24.90
2018-08-30T07:16:37.729Z,24.43
2018-08-30T07:19:06.247Z,24.87
2018-08-30T07:21:34.754Z,25.37
2018-08-30T07:24:09.951Z,21.00
2018-08-30T07:26:38.361Z,22.27
2018-08-30T07:29:06.802Z,19.20
2018-08-30T07:31:35.933Z,19.90
2018-08-30T07:34:04.501Z,21.20
2018-08-30T07:36:32.909Z,17.00
2018-08-30T07:39:01.362Z,17.17
2018-08-30T07:41:29.830Z,16.97
2018-08-30T07:43:58.363Z,17.10
2018-08-30T07:46:26.780Z,16.13
2018-08-30T07:48:55.219Z,16.03
2018-08-30T07:51:24.535Z,13.53
2018-08-30T07:53:52.967Z,13.97
2018-08-30T07:56:21.462Z,13.30
2018-08-30T07:58:49.946Z,11.13
2018-08-30T08:01:18.387Z,13.17
2018-08-30T08:03:46.860Z,13.77
2018-08-30T08:06:15.305Z,12.53
2018-08-30T08:08:43.771Z,11.70
2018-08-30T08:11:12.213Z,11.93
2018-08-30T08:13:40.684Z,11.50
2018-08-30T08:16:09.147Z,10.63
2018-08-30T08:18:37.683Z,10.73
2018-08-30T08:21:06.183Z,9.50
2018-08-30T08:23:34.655Z,10.03
2018-08-30T08:26:03.110Z,8.50
2018-08-30T08:28:31.547Z,7.70
2018-08-30T08:31:00.006Z,7.53
2018-08-30T08:33:28.431Z,7.33
2018-08-30T08:35:56.895Z,7.23
2018-08-30T08:38:25.364Z,5.50
2018-08-30T08:40:53.868Z,6.60
2018-08-30T08:43:22.317Z,6.73
2018-08-30T08:45:50.766Z,6.20
2018-08-30T08:48:19.232Z,6.50
2018-08-30T08:50:47.679Z,6.07
2018-08-30T08:53:16.120Z,6.73
2018-08-30T08:55:44.586Z,5.80
2018-08-30T08:58:13.038Z,5.33
2018-08-30T09:00:41.499Z,5.10
2018-08-30T09:03:09.929Z,5.63
2018-08-30T09:05:38.438Z,5.63
2018-08-30T09:08:06.899Z,4.87
2018-08-30T09:10:35.412Z,5.30
2018-08-30T09:13:03.866Z,5.20
2018-08-30T09:15:32.430Z,4.93
2018-08-30T09:18:00.882Z,4.57
2018-08-30T09:20:29.381Z,3.80
2018-08-30T09:22:57.833Z,3.80
2018-08-30T09:25:26.290Z,3.90
2018-08-30T09:27:54.738Z,4.70
2018-08-30T09:30:23.192Z,4.33
2018-08-30T09:32:51.637Z,3.50
2018-08-30T09:35:20.065Z,4.97
2018-08-30T09:37:48.519Z,5.37
2018-08-30T09:40:16.963Z,4.50
2018-08-30T09:42:45.427Z,4.17
2018-08-30T09:45:13.870Z,4.20
2018-08-30T09:47:42.370Z,4.37
2018-08-30T09:50:10.826Z,4.53
2018-08-30T09:52:39.286Z,5.63
2018-08-30T09:55:07.761Z,4.93
2018-08-30T09:57:36.272Z,4.27
2018-08-30T10:00:05.098Z,6.03
2018-08-30T10:02:34.842Z,4.73
2018-08-30T10:05:03.327Z,3.30
2018-08-30T10:07:31.794Z,3.73
2018-08-30T10:10:00.281Z,4.10
2018-08-30T10:12:28.724Z,3.40
2018-08-30T10:14:57.176Z,3.73
2018-08-30T10:17:25.616Z,2.83
2018-08-30T10:19:54.080Z,3.57
2018-08-30T10:22:22.570Z,3.50
2018-08-30T10:24:51.005Z,3.17
2018-08-30T10:27:19.531Z,3.90
2018-08-30T10:29:47.951Z,3.63
2018-08-30T10:32:16.434Z,4.27
2018-08-30T10:34:44.849Z,3.37
2018-08-30T10:37:13.294Z,3.77
2018-08-30T10:39:41.740Z,3.77
2018-08-30T10:42:10.226Z,3.60
2018-08-30T10:44:38.654Z,3.37
2018-08-30T10:47:07.077Z,3.50
2018-08-30T10:49:35.772Z,3.53
2018-08-30T10:52:04.055Z,2.97
2018-08-30T10:54:32.511Z,3.50
2018-08-30T10:57:00.955Z,2.63
2018-08-30T10:59:29.449Z,3.70
2018-08-30T11:01:57.935Z,3.57
2018-08-30T11:04:26.846Z,3.27
2018-08-30T11:06:55.334Z,3.80
2018-08-30T11:09:23.804Z,3.00
2018-08-30T11:11:52.227Z,3.20
2018-08-30T11:14:20.694Z,2.90
2018-08-30T11:16:49.159Z,2.67
2018-08-30T11:19:17.624Z,3.27
2018-08-30T11:21:46.049Z,3.20
2018-08-30T11:24:14.526Z,3.13
2018-08-30T11:26:42.969Z,3.17
2018-08-30T11:29:11.395Z,2.87
2018-08-30T11:31:39.838Z,2.97
2018-08-30T11:34:08.290Z,3.30
2018-08-30T11:36:36.898Z,2.90
2018-08-30T11:39:06.868Z,2.70
2018-08-30T11:41:35.465Z,2.83
2018-08-30T11:44:03.972Z,3.60
2018-08-30T11:46:32.413Z,2.90
2018-08-30T11:49:01.135Z,2.87
2018-08-30T11:51:29.590Z,2.77
2018-08-30T11:53:58.095Z,3.43
2018-08-30T11:56:26.530Z,2.73
2018-08-30T11:58:55.017Z,3.00
2018-08-30T12:01:23.483Z,2.93
2018-08-30T12:03:52.063Z,3.53
2018-08-30T12:06:20.569Z,2.90
2018-08-30T12:08:49.081Z,3.43
2018-08-30T12:11:17.672Z,3.37
2018-08-30T12:13:46.214Z,2.37
2018-08-30T12:16:14.687Z,3.23
2018-08-30T12:18:43.169Z,3.43
2018-08-30T12:21:11.723Z,3.00
2018-08-30T12:23:40.148Z,2.53
2018-08-30T12:26:08.657Z,2.43
2018-08-30T12:28:38.000Z,2.40
2018-08-30T12:31:06.437Z,2.50
2018-08-30T12:33:34.985Z,2.53
2018-08-30T12:36:03.603Z,2.03
2018-08-30T12:38:32.222Z,3.40
2018-08-30T12:41:00.810Z,3.00
2018-08-30T12:43:29.371Z,2.90
2018-08-30T12:45:57.657Z,3.10
2018-08-30T12:48:26.159Z,4.07
2018-08-30T12:50:54.742Z,2.93
2018-08-30T12:53:23.226Z,3.03
2018-08-30T12:55:51.635Z,1.73
2018-08-30T12:58:20.248Z,3.07
2018-08-30T13:00:48.616Z,2.77
2018-08-30T13:03:17.095Z,3.17
2018-08-30T13:05:45.920Z,2.33
2018-08-30T13:08:14.188Z,2.23
2018-08-30T13:10:42.881Z,2.87
2018-08-30T13:13:11.275Z,3.03
2018-08-30T13:15:39.749Z,1.83
2018-08-30T13:18:08.287Z,2.30
2018-08-30T13:20:36.872Z,2.53
2018-08-30T13:23:05.471Z,2.40
2018-08-30T13:25:34.072Z,3.27
2018-08-30T13:28:02.482Z,2.63
2018-08-30T13:30:31.047Z,2.50
2018-08-30T13:32:59.513Z,2.60
2018-08-30T13:35:27.881Z,2.40
2018-08-30T13:37:56.433Z,2.70
2018-08-30T13:40:24.973Z,2.47
2018-08-30T13:42:53.525Z,3.13
2018-08-30T13:45:22.144Z,3.00
2018-08-30T13:47:50.619Z,2.17
2018-08-30T13:50:18.930Z,2.17
2018-08-30T13:52:47.442Z,2.50
2018-08-30T13:55:15.872Z,2.67
2018-08-30T13:57:44.468Z,2.70
2018-08-30T14:00:13.049Z,2.30
2018-08-30T14:02:41.179Z,2.10
2018-08-30T14:05:09.792Z,2.70
2018-08-30T14:07:38.032Z,2.67
2018-08-30T14:10:06.612Z,2.20
2018-08-30T14:12:35.258Z,2.80
2018-08-30T14:15:03.842Z,2.57
2018-08-30T14:17:31.889Z,2.20
2018-08-30T14:20:00.336Z,3.30
2018-08-30T14:22:28.786Z,2.57
2018-08-30T14:24:57.238Z,3.00
2018-08-30T14:27:25.694Z,2.43
2018-08-30T14:29:54.190Z,2.47
2018-08-30T14:32:22.633Z,2.37
2018-08-30T14:34:51.094Z,2.50
2018-08-30T14:37:19.527Z,2.80
2018-08-30T14:39:47.957Z,2.90
2018-08-30T14:42:16.407Z,3.27
2018-08-30T14:44:44.848Z,2.60
2018-08-30T14:47:13.415Z,2.80
2018-08-30T14:49:41.738Z,2.10
2018-08-30T14:52:10.225Z,2.30
2018-08-30T14:54:38.719Z,2.80
2018-08-30T14:57:07.174Z,2.20
2018-08-30T14:59:35.646Z,2.80
2018-08-30T15:02:04.173Z,2.87
2018-08-30T15:04:32.682Z,3.33
2018-08-30T15:07:01.198Z,2.67
2018-08-30T15:09:29.633Z,2.23
2018-08-30T15:11:58.062Z,4.13
2018-08-30T15:14:26.537Z,3.27
2018-08-30T15:16:54.987Z,4.17
2018-08-30T15:19:23.449Z,4.67
2018-08-30T15:21:51.898Z,2.77
2018-08-30T15:24:20.354Z,2.90
2018-08-30T15:26:49.013Z,3.00
2018-08-30T15:29:17.290Z,3.07
2018-08-30T15:31:45.814Z,2.10
2018-08-30T15:34:14.147Z,2.80
2018-08-30T15:36:42.616Z,2.80
2018-08-30T15:39:11.800Z,2.73
2018-08-30T15:41:40.535Z,1.73
2018-08-30T15:44:08.873Z,2.80
2018-08-30T15:46:37.366Z,2.53
2018-08-30T15:49:05.895Z,2.80
2018-08-30T15:51:34.340Z,2.90
2018-08-30T15:54:02.818Z,2.77
2018-08-30T15:56:31.264Z,2.50
2018-08-30T15:58:59.717Z,2.10
2018-08-30T16:01:28.180Z,2.90
2018-08-30T16:03:56.661Z,2.50
2018-08-30T16:06:25.135Z,3.83
2018-08-30T16:08:53.627Z,2.57
2018-08-30T16:11:22.211Z,2.33
2018-08-30T16:13:50.824Z,2.80
2018-08-30T16:16:19.311Z,2.73
2018-08-30T16:18:47.900Z,3.23
2018-08-30T16:21:16.281Z,3.83
2018-08-30T16:23:44.714Z,2.73
2018-08-30T16:26:13.155Z,2.80
2018-08-30T16:28:41.615Z,3.47
2018-08-30T16:31:10.077Z,2.27
2018-08-30T16:33:38.529Z,2.50
2018-08-30T16:36:07.026Z,2.40
2018-08-30T16:38:35.533Z,2.57
2018-08-30T16:41:04.080Z,3.47
2018-08-30T16:43:32.530Z,2.93
2018-08-30T16:46:01.005Z,3.17
2018-08-30T16:48:29.455Z,2.80
2018-08-30T16:50:57.935Z,3.20
2018-08-30T16:53:26.389Z,2.87
2018-08-30T16:55:54.855Z,2.87
2018-08-30T16:58:23.297Z,2.90
2018-08-30T17:00:51.758Z,2.93
2018-08-30T17:03:20.211Z,2.30
2018-08-30T17:05:48.653Z,2.07
2018-08-30T17:08:17.101Z,2.10
2018-08-30T17:10:45.544Z,2.20
2018-08-30T17:13:13.988Z,1.77
2018-08-30T17:15:42.430Z,2.07
2018-08-30T17:18:10.865Z,2.50
2018-08-30T17:20:41.983Z,2.87
2018-08-30T17:23:10.723Z,2.90
2018-08-30T17:25:39.783Z,4.33
2018-08-30T17:28:08.051Z,2.13
2018-08-30T17:30:36.721Z,2.53
2018-08-30T17:33:05.321Z,2.83
2018-08-30T17:35:33.803Z,2.70
2018-08-30T17:38:02.237Z,2.80
2018-08-30T17:40:30.687Z,3.50
2018-08-30T17:42:59.138Z,2.80
2018-08-30T17:45:27.661Z,3.27
2018-08-30T17:47:56.210Z,3.20
2018-08-30T17:50:24.748Z,2.87
2018-08-30T17:52:53.169Z,2.33
2018-08-30T17:55:21.688Z,3.40
2018-08-30T17:57:50.139Z,3.60
2018-08-30T18:00:18.624Z,2.80
2018-08-30T18:02:47.530Z,3.43
2018-08-30T18:05:16.285Z,3.30
2018-08-30T18:07:45.088Z,4.23
2018-08-30T18:10:13.553Z,2.60
2018-08-30T18:12:42.002Z,2.23
2018-08-30T18:15:12.660Z,2.70
2018-08-30T18:17:41.097Z,3.60
2018-08-30T18:20:09.573Z,3.00
2018-08-30T18:22:38.030Z,3.10
2018-08-30T18:25:06.986Z,3.23
2018-08-30T18:27:35.459Z,3.90
2018-08-30T18:30:03.966Z,3.43
2018-08-30T18:32:32.419Z,3.00
2018-08-30T18:35:00.923Z,4.00
2018-08-30T18:37:29.345Z,2.73
2018-08-30T18:39:57.788Z,2.80
2018-08-30T18:42:26.242Z,3.63
2018-08-30T18:44:54.702Z,4.20
2018-08-30T18:47:23.129Z,3.67
2018-08-30T18:49:51.635Z,4.03
2018-08-30T18:52:20.085Z,3.60
2018-08-30T18:54:48.600Z,3.07
2018-08-30T18:57:17.042Z,3.40
2018-08-30T18:59:45.510Z,3.60
2018-08-30T19:02:13.965Z,3.77
2018-08-30T19:04:42.488Z,2.80
2018-08-30T19:07:10.992Z,4.30
2018-08-30T19:09:39.466Z,3.50
2018-08-30T19:12:07.965Z,3.47
2018-08-30T19:14:36.394Z,4.50
2018-08-30T19:17:10.294Z,3.97
2018-08-30T19:19:38.737Z,4.53
2018-08-30T19:22:07.169Z,3.93
2018-08-30T19:24:41.053Z,3.70
2018-08-30T19:27:09.485Z,3.40
2018-08-30T19:29:43.141Z,3.77
2018-08-30T19:32:11.660Z,4.20
2018-08-30T19:34:40.542Z,4.10
2018-08-30T19:37:09.002Z,4.30
2018-08-30T19:39:37.507Z,4.10
2018-08-30T19:42:06.035Z,3.57
2018-08-30T19:44:34.465Z,3.77
2018-08-30T19:47:02.943Z,5.30
2018-08-30T19:49:31.357Z,4.60
2018-08-30T19:51:59.782Z,3.80
2018-08-30T19:54:28.232Z,4.40
2018-08-30T19:56:56.679Z,3.00
2018-08-30T19:59:25.166Z,3.50
2018-08-30T20:01:53.605Z,3.77
2018-08-30T20:04:22.083Z,4.37
2018-08-30T20:06:50.497Z,4.77
2018-08-30T20:09:18.994Z,3.90
2018-08-30T20:11:47.389Z,3.63
2018-08-30T20:14:15.803Z,3.80
2018-08-30T20:16:44.276Z,3.70
2018-08-30T20:19:12.721Z,3.70
2018-08-30T20:21:41.741Z,4.30
2018-08-30T20:24:10.191Z,3.87
2018-08-30T20:26:38.809Z,3.70
2018-08-30T20:29:07.279Z,4.00
2018-08-30T20:31:36.487Z,3.23
2018-08-30T20:34:04.958Z,4.20
2018-08-30T20:36:33.429Z,3.73
2018-08-30T20:39:01.868Z,3.33
2018-08-30T20:41:30.296Z,3.00
2018-08-30T20:43:58.749Z,3.60
2018-08-30T20:46:27.229Z,3.90
2018-08-30T20:48:55.686Z,3.03
2018-08-30T20:51:24.127Z,3.90
2018-08-30T20:53:52.599Z,3.93
2018-08-30T20:56:21.280Z,4.03
2018-08-30T20:58:49.746Z,3.37
2018-08-30T21:01:18.208Z,3.90
2018-08-30T21:03:46.677Z,3.33
2018-08-30T21:06:15.190Z,3.50
2018-08-30T21:08:43.647Z,3.00
2018-08-30T21:11:12.223Z,3.20
2018-08-30T21:13:40.658Z,3.07
2018-08-30T21:16:09.102Z,3.87
2018-08-30T21:18:37.632Z,3.33
2018-08-30T21:21:06.286Z,4.07
2018-08-30T21:23:34.722Z,4.30
2018-08-30T21:26:03.214Z,3.90
2018-08-30T21:28:31.670Z,3.60
2018-08-30T21:31:00.125Z,3.80
2018-08-30T21:33:28.715Z,4.57
2018-08-30T21:35:57.892Z,4.70
2018-08-30T21:38:27.128Z,5.50
2018-08-30T21:40:55.558Z,4.70
2018-08-30T21:43:24.060Z,5.00
2018-08-30T21:45:52.616Z,5.00
2018-08-30T21:48:21.042Z,5.83
2018-08-30T21:50:49.486Z,5.10
2018-08-30T21:53:17.949Z,4.97
2018-08-30T21:55:46.385Z,5.50
2018-08-30T21:58:14.855Z,6.90
2018-08-30T22:00:43.347Z,6.30
2018-08-30T22:03:11.829Z,6.50
2018-08-30T22:05:40.293Z,6.00
2018-08-30T22:08:08.728Z,7.47
2018-08-30T22:10:37.170Z,8.30
2018-08-30T22:13:05.695Z,7.40
2018-08-30T22:15:34.158Z,8.63
2018-08-30T22:18:02.610Z,6.60
2018-08-30T22:20:31.089Z,7.20
2018-08-30T22:22:59.554Z,6.73
2018-08-30T22:25:27.975Z,7.20
2018-08-30T22:27:56.451Z,7.57
2018-08-30T22:30:24.907Z,7.07
2018-08-30T22:32:53.374Z,5.50
2018-08-30T22:35:22.072Z,6.30
2018-08-30T22:37:50.557Z,6.10
2018-08-30T22:40:19.126Z,6.03
2018-08-30T22:42:47.489Z,6.20
2018-08-30T22:45:15.945Z,6.63
2018-08-30T22:47:44.388Z,5.80
2018-08-30T22:50:12.842Z,6.30
2018-08-30T22:52:41.305Z,6.80
2018-08-30T22:55:09.763Z,6.40
2018-08-30T22:57:38.206Z,6.60
2018-08-30T23:00:06.710Z,7.70
2018-08-30T23:02:35.219Z,6.90
2018-08-30T23:05:03.710Z,8.80
2018-08-30T23:07:32.164Z,7.53
2018-08-30T23:10:00.604Z,7.60
2018-08-30T23:12:29.126Z,7.30
2018-08-30T23:14:57.589Z,7.70
2018-08-30T23:17:26.022Z,6.67
2018-08-30T23:19:54.545Z,7.83
2018-08-30T23:22:22.982Z,7.50
2018-08-30T23:24:51.457Z,7.23
2018-08-30T23:27:19.923Z,7.30
2018-08-30T23:29:48.361Z,8.30
2018-08-30T23:32:16.874Z,6.70
2018-08-30T23:34:45.344Z,6.73
2018-08-30T23:37:13.802Z,7.53
2018-08-30T23:39:42.281Z,6.90
2018-08-30T23:42:10.780Z,6.77
2018-08-30T23:44:39.234Z,6.40
2018-08-30T23:47:07.669Z,7.53
2018-08-30T23:49:36.126Z,7.40
2018-08-30T23:52:04.618Z,6.40
2018-08-30T23:54:33.055Z,6.50
2018-08-30T23:57:01.589Z,6.57
2018-08-30T23:59:41.226Z,7.50
